Weather observations for the past three days for
Grand Island, Central Nebraska Regional Airport
Metric (Imperial)
Date Time (cdt) Wind (kph) Vis. (km) Weather Sky Cond. Temperature (ºC) Relative Humidity Wind Chill (°C) Heat Index (°C) Pressure Precipitation (cm)
Air Dwpt 6 hour altimeter (cm) sea level (mb) 1 hr 3 hr 6 hr
Max. Min.
02 14:53 SW 22 G 33 16.09 Fair CLR 20 -4.4 19% 76.4 1019.1
02 13:53 SW 13 G 35 16.09 Fair CLR 18.3 -3.3 23% 76.45 1020.1
02 12:53 W 20 16.09 Fair CLR 17.2 -3.9 17.8 -0.6 24% 76.53 1021.1
02 11:53 W 17 G 33 16.09 Fair CLR 16.7 -3.9 24% 76.61 1022.0
02 10:53 NW 13 16.09 Fair CLR 14.4 -3.3 29% 76.63 1022.5
02 09:53 W 22 16.09 Fair CLR 11.7 -1.1 41% 76.66 1023.1
02 08:53 W 11 16.09 Fair CLR 7.2 -2.2 52% 5 76.68 1023.3
02 07:53 W 9 16.09 Fair CLR 3.3 -1.7 70% 1 76.68 1023.5
02 06:53 W 7 16.09 Fair CLR -0.6 -3.3 3.9 -0.6 82% -3 76.66 1023.3
02 05:53 W 6 16.09 Fair CLR 0.6 -3.3 75% 76.66 1023.0
02 04:53 W 7 16.09 Fair CLR -0.6 -3.3 82% -3 76.66 1023.1
02 03:53 W 7 16.09 Fair CLR 1.1 -2.8 76% -1 76.66 1023.0
02 02:53 W 6 16.09 Fair CLR 1.7 -2.2 76% 76.66 1023.0
02 01:53 W 9 16.09 Fair CLR 1.7 -2.2 76% -1 76.66 1023.3
02 00:53 N 6 16.09 Fair CLR 3.3 -3.9 14.4 2.8 60% 76.66 1022.8
01 23:53 NE 6 16.09 Fair CLR 3.3 -3.3 62% 76.63 1022.6
01 22:53 NE 7 16.09 Fair CLR 5 -3.3 55% 4 76.61 1022.2
01 21:53 NE 9 16.09 Fair CLR 6.1 -2.8 53% 4 76.53 1021.6
01 20:53 NE 11 16.09 Fair CLR 8.9 -2.8 44% 7 76.48 1020.7
01 19:53 N 19 16.09 Fair CLR 13.3 -4.4 29% 76.43 1019.8
01 18:53 N 24 G 39 16.09 Fair CLR 14.4 -3.9 16.7 13.3 28% 76.4 1019.7
01 17:53 N 20 16.09 A Few Clouds FEW075 15.6 -3.3 27% 76.38 1019.3
01 16:53 N 31 G 43 16.09 Partly Cloudy SCT075 SCT090 16.7 -1.7 29% 76.4 1019.5
01 15:53 NW 22 G 43 16.09 A Few Clouds FEW070 15.6 -1.7 31% 76.43 1019.9
01 14:53 N 22 G 35 16.09 Partly Cloudy SCT090 15 -1.7 32% 76.48 1020.3
01 13:53 NE 19 G 33 16.09 Partly Cloudy FEW070 SCT095 13.9 -1.7 34% 76.48 1020.7
01 12:53 NE 17 16.09 Fair CLR 13.9 -2.2 14.4 1.1 33% 76.5 1020.9
01 11:53 NE 15 16.09 Fair CLR 12.8 -2.8 34% 76.53 1021.1
01 10:53 N 22 G 31 16.09 Fair CLR 11.1 -1.7 41% 76.53 1021.2
01 09:53 N 24 16.09 Fair CLR 9.4 0.6 55% 7 76.53 1021.1
01 08:53 N 15 16.09 Fair CLR 7.2 0.6 63% 5 76.5 1021.3
01 07:53 NW 13 16.09 A Few Clouds FEW090 3.9 -1.1 70% 1 76.5 1021.0
01 06:53 W 13 16.09 Fair CLR 1.1 -1.7 5 0 82% -2 76.48 1020.9
01 05:53 NW 11 16.09 Fair CLR 0.6 -1.1 89% -2 76.48 1020.8
01 04:53 W 17 16.09 Fair CLR 2.8 -0.6 79% -1 76.43 1020.1
01 03:53 W 17 16.09 Fair CLR 3.9 0 76% 0 76.43 1019.9
01 02:53 SW 15 16.09 Fair CLR 3.3 0 79% 0 76.45 1020.2
01 01:53 SW 11 16.09 Fair CLR 3.9 0 76% 1 76.48 1020.4
01 00:53 SW 11 16.09 Fair CLR 3.9 0 12.2 3.3 76% 1 76.5 1020.8
30 23:53 S 7 16.09 Fair CLR 5.6 0 68% 4 76.5 1020.6
30 22:53 S 6 16.09 Fair CLR 6.1 -1.1 60% 76.53 1021.1
30 21:53 Calm 16.09 Fair CLR 6.7 -1.1 58% 76.53 1021.2
30 20:53 N 9 16.09 Fair CLR 6.7 -0.6 60% 5 76.48 1020.9
30 19:53 N 13 16.09 Fair CLR 11.1 -1.1 43% 76.48 1020.4
30 18:53 N 24 16.09 Mostly Cloudy BKN090 12.2 -0.6 15 11.7 42% 76.45 1020.4
30 17:53 N 26 16.09 Mostly Cloudy SCT055 SCT070 BKN090 12.8 0.6 44% 76.45 1019.9
30 16:53 N 28 G 41 16.09 Mostly Cloudy FEW060 BKN080 13.3 1.1 44% 76.43 1019.8
30 15:53 N 19 G 39 16.09 Overcast BKN050 BKN065 OVC075 13.3 2.2 47% 76.45 1020.1
30 14:53 N 24 G 33 16.09 Mostly Cloudy SCT044 BKN060 13.3 2.2 47% 76.48 1020.2
30 13:53 N 30 G 41 16.09 Mostly Cloudy BKN055 BKN080 13.9 0 39% 76.48 1020.3
30 12:53 NW 19 16.09 Partly Cloudy SCT065 SCT075 14.4 -1.1 14.4 4.4 35% 76.5 1020.3
30 11:53 N 17 G 35 16.09 Partly Cloudy FEW041 SCT050 12.8 1.7 47% 76.56 1021.2
30 10:53 N 20 G 33 16.09 A Few Clouds FEW080 11.7 4.4 61% 76.58 1021.4
30 09:53 N 22 16.09 Fair CLR 11.1 5 66% 76.56 1021.1
30 08:53 N 19 16.09 Fair CLR 8.9 5 77% 6 76.53 1020.8
30 07:53 NW 13 16.09 Fair CLR 6.7 3.9 83% 4 76.48 1020.3
30 06:58 NW 9 16.09 Fair CLR 4 3 93% 2 76.45 0.0
30 06:53 NW 9 16.09 Fair CLR 4.4 2.8 8.3 4.4 89% 2 76.45 1019.9
30 05:53 NW 13 16.09 Fair CLR 5.6 2.8 82% 3 76.4 1019.3
30 04:53 NW 17 16.09 Fair CLR 6.1 4.4 89% 3 76.4 1019.1
30 03:53 NW 15 16.09 Fair CLR 6.1 5 93% 3 76.38 1019.0
30 02:53 W 13 16.09 Fair CLR 7.2 5.6 90% 5 76.38 1018.7
30 01:53 W 15 16.09 A Few Clouds FEW080 7.2 5.6 90% 5 76.4 1019.2
30 00:53 NW 13 16.09 A Few Clouds FEW100 8.3 6.1 16.7 7.8 86% 6 76.4 1019.2
29 23:53 W 7 16.09 Fair CLR 8.9 7.2 89% 8 76.4 1019.3
29 22:53 W 17 16.09 Overcast FEW070 OVC090 11.1 7.2 77% 76.43 1019.5
29 21:53 W 13 16.09 Mostly Cloudy BKN090 BKN110 11.7 6.1 69% 76.35 1018.7
29 20:53 SW 22 16.09 Mostly Cloudy FEW070 SCT090 BKN100 12.8 5 59% 76.3 1018.3
29 19:53 S 11 16.09 Overcast BKN075 OVC100 13.3 5 57% 76.28 1018.0
29 18:53 SW 6 16.09 Overcast SCT080 OVC100 16.1 2.2 17.8 13.3 39% 76.28 1018.0
29 17:53 SW 9 16.09 A Few Clouds FEW060 16.7 1.7 37% 76.28 1017.9
29 16:53 Calm 16.09 Partly Cloudy SCT060 17.2 2.2 37% 76.33 1018.4
29 15:53 Calm 16.09 Mostly Cloudy BKN055 16.1 1.7 38% 76.38 1019.2
Date Time (cdt) Wind (kph) Vis. (km) Weather Sky Cond. Air Dwpt Max. Min. Relative Humidity Wind Chill (°C) Heat Index (°C) altimeter (cm) sea level (mb) 1 hr 3 hr 6 hr
6 hour
Temperature (ºC) Pressure Precipitation (cm)